sensor_id;sensor_type;location;lat;lon;timestamp;temperature;humidity
19403;DHT22;9837;48.888;8.998;2023-10-13T00:00:30;23.60;50.50
19403;DHT22;9837;48.888;8.998;2023-10-13T00:03:02;23.60;50.60
19403;DHT22;9837;48.888;8.998;2023-10-13T00:05:28;23.60;50.20
19403;DHT22;9837;48.888;8.998;2023-10-13T00:07:59;23.60;50.80
19403;DHT22;9837;48.888;8.998;2023-10-13T00:10:27;23.50;50.40
19403;DHT22;9837;48.888;8.998;2023-10-13T00:15:18;23.10;49.60
19403;DHT22;9837;48.888;8.998;2023-10-13T00:17:53;23.20;49.40
19403;DHT22;9837;48.888;8.998;2023-10-13T00:23:05;23.40;48.70
19403;DHT22;9837;48.888;8.998;2023-10-13T00:28:09;23.40;47.80
19403;DHT22;9837;48.888;8.998;2023-10-13T00:33:02;23.40;47.40
19403;DHT22;9837;48.888;8.998;2023-10-13T00:35:29;23.50;47.20
19403;DHT22;9837;48.888;8.998;2023-10-13T00:38:04;23.40;47.10
19403;DHT22;9837;48.888;8.998;2023-10-13T00:40:39;23.40;47.10
19403;DHT22;9837;48.888;8.998;2023-10-13T00:43:05;23.40;47.10
19403;DHT22;9837;48.888;8.998;2023-10-13T00:45:50;23.30;47.00
19403;DHT22;9837;48.888;8.998;2023-10-13T00:48:28;23.30;47.00
19403;DHT22;9837;48.888;8.998;2023-10-13T00:51:06;23.20;46.80
19403;DHT22;9837;48.888;8.998;2023-10-13T00:53:34;23.20;47.10
19403;DHT22;9837;48.888;8.998;2023-10-13T00:56:03;23.30;46.50
19403;DHT22;9837;48.888;8.998;2023-10-13T00:58:33;23.30;46.70
19403;DHT22;9837;48.888;8.998;2023-10-13T01:01:02;23.40;46.40
19403;DHT22;9837;48.888;8.998;2023-10-13T01:03:51;23.50;46.20
19403;DHT22;9837;48.888;8.998;2023-10-13T01:09:15;23.40;46.70
19403;DHT22;9837;48.888;8.998;2023-10-13T01:11:45;23.60;46.10
19403;DHT22;9837;48.888;8.998;2023-10-13T01:14:12;23.70;45.90
19403;DHT22;9837;48.888;8.998;2023-10-13T01:19:10;23.80;45.70
19403;DHT22;9837;48.888;8.998;2023-10-13T01:21:38;23.80;45.60
19403;DHT22;9837;48.888;8.998;2023-10-13T01:24:06;23.80;45.80
19403;DHT22;9837;48.888;8.998;2023-10-13T01:29:04;23.80;45.80
19403;DHT22;9837;48.888;8.998;2023-10-13T01:31:38;23.80;45.70
19403;DHT22;9837;48.888;8.998;2023-10-13T01:36:38;23.70;45.80
19403;DHT22;9837;48.888;8.998;2023-10-13T01:39:05;23.70;45.90
19403;DHT22;9837;48.888;8.998;2023-10-13T01:41:31;23.60;45.90
19403;DHT22;9837;48.888;8.998;2023-10-13T01:46:23;23.60;46.10
19403;DHT22;9837;48.888;8.998;2023-10-13T01:48:48;23.50;46.10
19403;DHT22;9837;48.888;8.998;2023-10-13T01:51:14;23.40;46.10
19403;DHT22;9837;48.888;8.998;2023-10-13T01:56:09;23.00;46.90
19403;DHT22;9837;48.888;8.998;2023-10-13T01:58:39;22.90;47.00
19403;DHT22;9837;48.888;8.998;2023-10-13T02:01:08;22.70;47.30
19403;DHT22;9837;48.888;8.998;2023-10-13T02:03:34;22.60;47.60
19403;DHT22;9837;48.888;8.998;2023-10-13T02:06:06;22.50;47.60
19403;DHT22;9837;48.888;8.998;2023-10-13T02:13:26;22.80;47.50
19403;DHT22;9837;48.888;8.998;2023-10-13T02:15:56;22.70;47.70
19403;DHT22;9837;48.888;8.998;2023-10-13T02:18:24;22.50;47.80
19403;DHT22;9837;48.888;8.998;2023-10-13T02:20:53;22.20;48.20
19403;DHT22;9837;48.888;8.998;2023-10-13T02:23:29;22.30;47.90
19403;DHT22;9837;48.888;8.998;2023-10-13T02:25:56;22.10;47.80
19403;DHT22;9837;48.888;8.998;2023-10-13T02:28:39;22.10;48.10
19403;DHT22;9837;48.888;8.998;2023-10-13T02:31:05;22.20;47.90
19403;DHT22;9837;48.888;8.998;2023-10-13T02:33:33;22.20;47.60
19403;DHT22;9837;48.888;8.998;2023-10-13T02:36:00;21.90;48.10
19403;DHT22;9837;48.888;8.998;2023-10-13T02:38:30;21.80;48.20
19403;DHT22;9837;48.888;8.998;2023-10-13T02:41:18;21.60;48.50
19403;DHT22;9837;48.888;8.998;2023-10-13T02:43:55;21.50;48.70
19403;DHT22;9837;48.888;8.998;2023-10-13T02:46:22;21.70;48.40
19403;DHT22;9837;48.888;8.998;2023-10-13T02:48:48;21.60;48.50
19403;DHT22;9837;48.888;8.998;2023-10-13T02:51:19;21.80;48.20
19403;DHT22;9837;48.888;8.998;2023-10-13T02:53:57;21.90;48.00
19403;DHT22;9837;48.888;8.998;2023-10-13T02:56:28;22.10;47.40
19403;DHT22;9837;48.888;8.998;2023-10-13T02:58:54;21.90;47.70
19403;DHT22;9837;48.888;8.998;2023-10-13T03:01:22;22.00;47.60
19403;DHT22;9837;48.888;8.998;2023-10-13T03:06:24;22.40;46.80
19403;DHT22;9837;48.888;8.998;2023-10-13T03:08:58;22.40;46.80
19403;DHT22;9837;48.888;8.998;2023-10-13T03:11:25;22.10;47.10
19403;DHT22;9837;48.888;8.998;2023-10-13T03:13:51;22.10;47.50
19403;DHT22;9837;48.888;8.998;2023-10-13T03:16:18;22.00;47.10
19403;DHT22;9837;48.888;8.998;2023-10-13T03:18:46;21.80;47.50
19403;DHT22;9837;48.888;8.998;2023-10-13T03:21:22;21.80;47.70
19403;DHT22;9837;48.888;8.998;2023-10-13T03:23:56;21.60;48.00
19403;DHT22;9837;48.888;8.998;2023-10-13T03:26:23;21.50;48.20
19403;DHT22;9837;48.888;8.998;2023-10-13T03:28:49;21.40;48.50
19403;DHT22;9837;48.888;8.998;2023-10-13T03:31:20;21.50;48.40
19403;DHT22;9837;48.888;8.998;2023-10-13T03:33:52;21.80;47.90
19403;DHT22;9837;48.888;8.998;2023-10-13T03:36:24;22.00;47.30
19403;DHT22;9837;48.888;8.998;2023-10-13T03:41:39;22.20;46.90
19403;DHT22;9837;48.888;8.998;2023-10-13T03:44:06;22.00;46.90
19403;DHT22;9837;48.888;8.998;2023-10-13T03:49:08;21.90;47.50
19403;DHT22;9837;48.888;8.998;2023-10-13T03:51:39;21.90;47.20
19403;DHT22;9837;48.888;8.998;2023-10-13T03:54:04;22.10;47.00
19403;DHT22;9837;48.888;8.998;2023-10-13T03:56:33;22.10;47.10
19403;DHT22;9837;48.888;8.998;2023-10-13T03:59:05;21.80;47.50
19403;DHT22;9837;48.888;8.998;2023-10-13T04:01:32;21.90;47.50
19403;DHT22;9837;48.888;8.998;2023-10-13T04:04:10;22.30;46.90
19403;DHT22;9837;48.888;8.998;2023-10-13T04:06:41;22.50;46.10
19403;DHT22;9837;48.888;8.998;2023-10-13T04:09:22;22.40;46.20
19403;DHT22;9837;48.888;8.998;2023-10-13T04:12:07;22.20;46.60
19403;DHT22;9837;48.888;8.998;2023-10-13T04:14:43;22.00;47.30
19403;DHT22;9837;48.888;8.998;2023-10-13T04:17:38;21.80;47.60
19403;DHT22;9837;48.888;8.998;2023-10-13T04:22:41;21.90;47.20
19403;DHT22;9837;48.888;8.998;2023-10-13T04:30:49;21.40;48.60
19403;DHT22;9837;48.888;8.998;2023-10-13T04:33:18;21.60;48.00
19403;DHT22;9837;48.888;8.998;2023-10-13T04:36:13;21.70;47.90
19403;DHT22;9837;48.888;8.998;2023-10-13T04:38:51;21.70;47.60
19403;DHT22;9837;48.888;8.998;2023-10-13T04:44:00;21.80;47.20
19403;DHT22;9837;48.888;8.998;2023-10-13T04:46:44;21.70;47.30
19403;DHT22;9837;48.888;8.998;2023-10-13T04:51:59;21.30;48.40
19403;DHT22;9837;48.888;8.998;2023-10-13T04:54:27;21.60;47.80
19403;DHT22;9837;48.888;8.998;2023-10-13T04:57:02;21.60;47.60
19403;DHT22;9837;48.888;8.998;2023-10-13T04:59:47;21.50;47.80
19403;DHT22;9837;48.888;8.998;2023-10-13T05:05:04;21.70;47.50
19403;DHT22;9837;48.888;8.998;2023-10-13T05:07:49;21.70;46.80
19403;DHT22;9837;48.888;8.998;2023-10-13T05:10:35;21.90;46.80
19403;DHT22;9837;48.888;8.998;2023-10-13T05:16:11;21.70;46.40
19403;DHT22;9837;48.888;8.998;2023-10-13T05:18:55;22.00;46.00
19403;DHT22;9837;48.888;8.998;2023-10-13T05:21:39;22.10;45.70
19403;DHT22;9837;48.888;8.998;2023-10-13T05:24:23;21.90;45.50
19403;DHT22;9837;48.888;8.998;2023-10-13T05:27:07;21.60;46.40
19403;DHT22;9837;48.888;8.998;2023-10-13T05:29:51;21.70;46.30
19403;DHT22;9837;48.888;8.998;2023-10-13T05:32:35;21.70;46.20
19403;DHT22;9837;48.888;8.998;2023-10-13T05:35:20;21.70;46.30
19403;DHT22;9837;48.888;8.998;2023-10-13T05:38:05;21.50;46.40
19403;DHT22;9837;48.888;8.998;2023-10-13T05:41:01;21.30;46.90
19403;DHT22;9837;48.888;8.998;2023-10-13T05:43:45;21.60;46.80
19403;DHT22;9837;48.888;8.998;2023-10-13T05:46:31;21.80;46.20
19403;DHT22;9837;48.888;8.998;2023-10-13T05:49:07;22.00;45.90
19403;DHT22;9837;48.888;8.998;2023-10-13T05:51:42;22.20;45.30
19403;DHT22;9837;48.888;8.998;2023-10-13T05:54:32;21.90;45.60
19403;DHT22;9837;48.888;8.998;2023-10-13T05:57:16;21.90;45.60
19403;DHT22;9837;48.888;8.998;2023-10-13T06:00:00;21.90;45.70
19403;DHT22;9837;48.888;8.998;2023-10-13T06:02:44;22.00;45.40
19403;DHT22;9837;48.888;8.998;2023-10-13T06:05:28;21.80;45.90
19403;DHT22;9837;48.888;8.998;2023-10-13T06:08:12;21.80;46.50
19403;DHT22;9837;48.888;8.998;2023-10-13T06:11:03;21.90;45.80
19403;DHT22;9837;48.888;8.998;2023-10-13T06:13:48;21.70;46.10
19403;DHT22;9837;48.888;8.998;2023-10-13T06:16:32;21.90;45.80
19403;DHT22;9837;48.888;8.998;2023-10-13T06:19:16;22.00;45.70
19403;DHT22;9837;48.888;8.998;2023-10-13T06:22:00;21.60;46.30
19403;DHT22;9837;48.888;8.998;2023-10-13T06:24:44;21.60;46.70
19403;DHT22;9837;48.888;8.998;2023-10-13T06:27:28;21.90;46.40
19403;DHT22;9837;48.888;8.998;2023-10-13T06:30:12;22.10;45.80
19403;DHT22;9837;48.888;8.998;2023-10-13T06:32:38;22.20;45.20
19403;DHT22;9837;48.888;8.998;2023-10-13T06:35:05;22.30;45.30
19403;DHT22;9837;48.888;8.998;2023-10-13T06:37:44;22.70;44.40
19403;DHT22;9837;48.888;8.998;2023-10-13T06:40:10;23.00;44.40
19403;DHT22;9837;48.888;8.998;2023-10-13T06:42:52;23.10;43.60
19403;DHT22;9837;48.888;8.998;2023-10-13T06:45:18;23.30;43.30
19403;DHT22;9837;48.888;8.998;2023-10-13T06:47:46;23.40;43.00
19403;DHT22;9837;48.888;8.998;2023-10-13T06:50:12;23.20;43.50
19403;DHT22;9837;48.888;8.998;2023-10-13T06:52:44;23.20;43.30
19403;DHT22;9837;48.888;8.998;2023-10-13T06:55:09;23.50;43.10
19403;DHT22;9837;48.888;8.998;2023-10-13T06:57:49;23.50;42.70
19403;DHT22;9837;48.888;8.998;2023-10-13T07:00:16;23.40;42.90
19403;DHT22;9837;48.888;8.998;2023-10-13T07:02:52;23.20;43.60
19403;DHT22;9837;48.888;8.998;2023-10-13T07:05:18;22.80;43.70
19403;DHT22;9837;48.888;8.998;2023-10-13T07:07:44;22.90;44.30
19403;DHT22;9837;48.888;8.998;2023-10-13T07:10:11;23.10;44.00
19403;DHT22;9837;48.888;8.998;2023-10-13T07:12:40;23.50;43.50
19403;DHT22;9837;48.888;8.998;2023-10-13T07:15:10;24.00;42.20
19403;DHT22;9837;48.888;8.998;2023-10-13T07:17:46;24.00;42.30
19403;DHT22;9837;48.888;8.998;2023-10-13T07:20:12;24.40;41.60
19403;DHT22;9837;48.888;8.998;2023-10-13T07:22:42;24.50;41.30
19403;DHT22;9837;48.888;8.998;2023-10-13T07:25:21;24.60;41.10
19403;DHT22;9837;48.888;8.998;2023-10-13T07:27:50;24.60;41.50
19403;DHT22;9837;48.888;8.998;2023-10-13T07:30:16;24.60;41.20
19403;DHT22;9837;48.888;8.998;2023-10-13T07:32:45;24.50;41.10
19403;DHT22;9837;48.888;8.998;2023-10-13T07:35:12;24.30;41.80
19403;DHT22;9837;48.888;8.998;2023-10-13T07:37:41;24.00;42.50
19403;DHT22;9837;48.888;8.998;2023-10-13T07:40:10;24.30;41.90
19403;DHT22;9837;48.888;8.998;2023-10-13T07:45:17;24.40;41.70
19403;DHT22;9837;48.888;8.998;2023-10-13T07:47:53;24.60;41.50
19403;DHT22;9837;48.888;8.998;2023-10-13T07:50:19;24.60;40.90
19403;DHT22;9837;48.888;8.998;2023-10-13T07:52:51;24.80;40.80
19403;DHT22;9837;48.888;8.998;2023-10-13T07:55:45;24.60;40.30
19403;DHT22;9837;48.888;8.998;2023-10-13T07:58:12;24.60;40.80
19403;DHT22;9837;48.888;8.998;2023-10-13T08:00:39;24.80;40.80
19403;DHT22;9837;48.888;8.998;2023-10-13T08:03:10;25.00;39.90
19403;DHT22;9837;48.888;8.998;2023-10-13T08:05:51;25.10;40.20
19403;DHT22;9837;48.888;8.998;2023-10-13T08:08:44;25.30;39.70
19403;DHT22;9837;48.888;8.998;2023-10-13T08:11:15;25.30;39.50
19403;DHT22;9837;48.888;8.998;2023-10-13T08:13:54;25.40;39.60
19403;DHT22;9837;48.888;8.998;2023-10-13T08:16:20;25.30;39.90
19403;DHT22;9837;48.888;8.998;2023-10-13T08:18:50;25.30;39.70
19403;DHT22;9837;48.888;8.998;2023-10-13T08:21:19;25.40;39.60
19403;DHT22;9837;48.888;8.998;2023-10-13T08:23:49;25.30;38.90
19403;DHT22;9837;48.888;8.998;2023-10-13T08:26:22;25.30;39.40
19403;DHT22;9837;48.888;8.998;2023-10-13T08:29:06;25.30;39.70
19403;DHT22;9837;48.888;8.998;2023-10-13T08:31:47;28.90;41.60
19403;DHT22;9837;48.888;8.998;2023-10-13T08:37:07;25.80;38.50
19403;DHT22;9837;48.888;8.998;2023-10-13T08:39:55;25.60;38.10
19403;DHT22;9837;48.888;8.998;2023-10-13T08:42:44;25.60;38.40
19403;DHT22;9837;48.888;8.998;2023-10-13T08:45:12;25.50;38.70
19403;DHT22;9837;48.888;8.998;2023-10-13T08:48:02;25.70;38.80
19403;DHT22;9837;48.888;8.998;2023-10-13T08:50:38;25.90;38.60
19403;DHT22;9837;48.888;8.998;2023-10-13T08:53:19;25.70;38.10
19403;DHT22;9837;48.888;8.998;2023-10-13T08:55:59;25.90;38.90
19403;DHT22;9837;48.888;8.998;2023-10-13T08:58:49;26.10;37.70
19403;DHT22;9837;48.888;8.998;2023-10-13T09:01:19;26.20;38.00
19403;DHT22;9837;48.888;8.998;2023-10-13T09:04:05;26.10;38.20
19403;DHT22;9837;48.888;8.998;2023-10-13T09:06:55;25.90;38.50
19403;DHT22;9837;48.888;8.998;2023-10-13T09:09:31;26.00;38.90
19403;DHT22;9837;48.888;8.998;2023-10-13T09:12:17;26.30;37.40
19403;DHT22;9837;48.888;8.998;2023-10-13T09:14:50;26.20;37.50
19403;DHT22;9837;48.888;8.998;2023-10-13T09:17:23;26.60;37.50
19403;DHT22;9837;48.888;8.998;2023-10-13T09:20:03;26.70;37.50
19403;DHT22;9837;48.888;8.998;2023-10-13T09:22:54;27.00;37.40
19403;DHT22;9837;48.888;8.998;2023-10-13T09:25:29;27.40;36.70
19403;DHT22;9837;48.888;8.998;2023-10-13T09:28:03;27.50;36.00
19403;DHT22;9837;48.888;8.998;2023-10-13T09:30:43;27.50;35.90
19403;DHT22;9837;48.888;8.998;2023-10-13T09:33:08;27.80;35.00
19403;DHT22;9837;48.888;8.998;2023-10-13T09:35:34;27.80;35.00
19403;DHT22;9837;48.888;8.998;2023-10-13T09:38:02;27.40;35.70
19403;DHT22;9837;48.888;8.998;2023-10-13T09:40:29;27.50;35.60
19403;DHT22;9837;48.888;8.998;2023-10-13T09:42:57;27.60;35.20
19403;DHT22;9837;48.888;8.998;2023-10-13T09:45:30;28.10;34.70
19403;DHT22;9837;48.888;8.998;2023-10-13T09:48:09;28.20;34.00
19403;DHT22;9837;48.888;8.998;2023-10-13T09:50:52;28.30;34.40
19403;DHT22;9837;48.888;8.998;2023-10-13T09:53:22;28.20;34.80
19403;DHT22;9837;48.888;8.998;2023-10-13T09:55:57;28.40;34.40
19403;DHT22;9837;48.888;8.998;2023-10-13T09:58:38;28.50;34.00
19403;DHT22;9837;48.888;8.998;2023-10-13T10:01:16;28.40;33.90
19403;DHT22;9837;48.888;8.998;2023-10-13T10:03:49;28.70;33.60
19403;DHT22;9837;48.888;8.998;2023-10-13T10:06:33;28.90;33.20
19403;DHT22;9837;48.888;8.998;2023-10-13T10:09:09;29.20;33.30
19403;DHT22;9837;48.888;8.998;2023-10-13T10:12:01;29.60;32.60
19403;DHT22;9837;48.888;8.998;2023-10-13T10:14:50;29.60;32.30
19403;DHT22;9837;48.888;8.998;2023-10-13T10:17:22;29.60;31.80
19403;DHT22;9837;48.888;8.998;2023-10-13T10:19:52;29.60;32.10
19403;DHT22;9837;48.888;8.998;2023-10-13T10:24:58;29.50;31.80
19403;DHT22;9837;48.888;8.998;2023-10-13T10:27:31;29.30;32.00
19403;DHT22;9837;48.888;8.998;2023-10-13T10:29:58;29.30;32.20
19403;DHT22;9837;48.888;8.998;2023-10-13T10:32:38;29.70;32.30
19403;DHT22;9837;48.888;8.998;2023-10-13T10:35:08;30.10;32.00
19403;DHT22;9837;48.888;8.998;2023-10-13T10:37:41;30.10;31.90
19403;DHT22;9837;48.888;8.998;2023-10-13T10:40:16;30.10;31.10
19403;DHT22;9837;48.888;8.998;2023-10-13T10:43:01;30.00;31.30
19403;DHT22;9837;48.888;8.998;2023-10-13T10:45:27;29.90;31.50
19403;DHT22;9837;48.888;8.998;2023-10-13T10:47:59;30.40;31.30
19403;DHT22;9837;48.888;8.998;2023-10-13T10:50:26;30.70;31.00
19403;DHT22;9837;48.888;8.998;2023-10-13T10:53:06;31.00;30.70
19403;DHT22;9837;48.888;8.998;2023-10-13T10:55:35;31.10;29.80
19403;DHT22;9837;48.888;8.998;2023-10-13T10:58:02;31.10;29.80
19403;DHT22;9837;48.888;8.998;2023-10-13T11:00:31;30.70;29.70
19403;DHT22;9837;48.888;8.998;2023-10-13T11:03:12;30.60;30.20
19403;DHT22;9837;48.888;8.998;2023-10-13T11:05:47;30.70;30.30
19403;DHT22;9837;48.888;8.998;2023-10-13T11:08:25;30.80;30.30
19403;DHT22;9837;48.888;8.998;2023-10-13T11:11:00;31.20;29.90
19403;DHT22;9837;48.888;8.998;2023-10-13T11:13:27;31.30;29.30
19403;DHT22;9837;48.888;8.998;2023-10-13T11:15:57;31.50;29.00
19403;DHT22;9837;48.888;8.998;2023-10-13T11:18:30;31.40;29.10
19403;DHT22;9837;48.888;8.998;2023-10-13T11:20:59;31.60;28.50
19403;DHT22;9837;48.888;8.998;2023-10-13T11:23:25;31.70;28.70
19403;DHT22;9837;48.888;8.998;2023-10-13T11:25:58;31.70;28.00
19403;DHT22;9837;48.888;8.998;2023-10-13T11:28:24;31.60;28.90
19403;DHT22;9837;48.888;8.998;2023-10-13T11:30:54;31.60;28.30
19403;DHT22;9837;48.888;8.998;2023-10-13T11:33:42;31.80;28.20
19403;DHT22;9837;48.888;8.998;2023-10-13T11:36:12;31.80;28.10
19403;DHT22;9837;48.888;8.998;2023-10-13T11:38:43;31.80;27.70
19403;DHT22;9837;48.888;8.998;2023-10-13T11:41:15;31.90;28.10
19403;DHT22;9837;48.888;8.998;2023-10-13T11:43:46;32.00;27.80
19403;DHT22;9837;48.888;8.998;2023-10-13T11:46:16;32.30;27.70
19403;DHT22;9837;48.888;8.998;2023-10-13T11:48:43;32.50;27.30
19403;DHT22;9837;48.888;8.998;2023-10-13T11:51:11;32.60;26.80
19403;DHT22;9837;48.888;8.998;2023-10-13T11:53:44;32.90;27.50
19403;DHT22;9837;48.888;8.998;2023-10-13T11:58:46;33.10;26.80
19403;DHT22;9837;48.888;8.998;2023-10-13T12:01:11;33.20;26.70
19403;DHT22;9837;48.888;8.998;2023-10-13T12:03:44;33.40;26.60
19403;DHT22;9837;48.888;8.998;2023-10-13T12:06:29;33.50;26.50
19403;DHT22;9837;48.888;8.998;2023-10-13T12:14:08;33.60;25.90
19403;DHT22;9837;48.888;8.998;2023-10-13T12:16:46;33.10;25.60
19403;DHT22;9837;48.888;8.998;2023-10-13T12:19:20;33.10;26.40
19403;DHT22;9837;48.888;8.998;2023-10-13T12:21:55;33.30;26.20
19403;DHT22;9837;48.888;8.998;2023-10-13T12:24:27;33.30;26.10
19403;DHT22;9837;48.888;8.998;2023-10-13T12:27:07;33.30;25.90
19403;DHT22;9837;48.888;8.998;2023-10-13T12:29:50;33.10;25.80
19403;DHT22;9837;48.888;8.998;2023-10-13T12:32:17;32.50;26.20
19403;DHT22;9837;48.888;8.998;2023-10-13T12:34:48;32.30;26.80
19403;DHT22;9837;48.888;8.998;2023-10-13T12:37:27;32.20;26.90
19403;DHT22;9837;48.888;8.998;2023-10-13T12:40:05;32.10;26.70
19403;DHT22;9837;48.888;8.998;2023-10-13T12:42:50;32.00;26.10
19403;DHT22;9837;48.888;8.998;2023-10-13T12:45:41;32.00;27.00
19403;DHT22;9837;48.888;8.998;2023-10-13T12:48:26;32.00;27.00
19403;DHT22;9837;48.888;8.998;2023-10-13T12:51:10;32.40;26.40
19403;DHT22;9837;48.888;8.998;2023-10-13T12:53:55;33.10;26.00
19403;DHT22;9837;48.888;8.998;2023-10-13T12:56:21;33.10;26.20
19403;DHT22;9837;48.888;8.998;2023-10-13T12:58:54;33.20;26.00
19403;DHT22;9837;48.888;8.998;2023-10-13T13:01:24;33.00;25.80
19403;DHT22;9837;48.888;8.998;2023-10-13T13:03:51;33.30;26.10
19403;DHT22;9837;48.888;8.998;2023-10-13T13:06:22;33.80;25.70
19403;DHT22;9837;48.888;8.998;2023-10-13T13:08:55;33.90;25.10
19403;DHT22;9837;48.888;8.998;2023-10-13T13:11:21;34.00;25.20
19403;DHT22;9837;48.888;8.998;2023-10-13T13:16:18;33.50;24.90
19403;DHT22;9837;48.888;8.998;2023-10-13T13:18:47;33.50;25.40
19403;DHT22;9837;48.888;8.998;2023-10-13T13:21:13;33.40;24.60
19403;DHT22;9837;48.888;8.998;2023-10-13T13:26:11;33.60;25.40
19403;DHT22;9837;48.888;8.998;2023-10-13T13:28:46;33.60;24.70
19403;DHT22;9837;48.888;8.998;2023-10-13T13:31:18;33.30;24.50
19403;DHT22;9837;48.888;8.998;2023-10-13T13:33:43;33.40;25.10
19403;DHT22;9837;48.888;8.998;2023-10-13T13:36:10;33.60;24.90
19403;DHT22;9837;48.888;8.998;2023-10-13T13:41:15;33.90;24.90
19403;DHT22;9837;48.888;8.998;2023-10-13T13:43:45;33.70;25.20
19403;DHT22;9837;48.888;8.998;2023-10-13T13:48:53;33.50;24.70
19403;DHT22;9837;48.888;8.998;2023-10-13T13:51:27;33.10;25.00
19403;DHT22;9837;48.888;8.998;2023-10-13T13:53:54;33.30;24.90
19403;DHT22;9837;48.888;8.998;2023-10-13T13:58:50;33.20;24.70
19403;DHT22;9837;48.888;8.998;2023-10-13T14:01:16;33.30;24.90
19403;DHT22;9837;48.888;8.998;2023-10-13T14:03:46;33.30;24.90
19403;DHT22;9837;48.888;8.998;2023-10-13T14:06:17;33.10;24.70
19403;DHT22;9837;48.888;8.998;2023-10-13T14:08:47;33.20;25.00
19403;DHT22;9837;48.888;8.998;2023-10-13T14:11:19;33.10;24.60
19403;DHT22;9837;48.888;8.998;2023-10-13T14:13:49;33.00;24.90
19403;DHT22;9837;48.888;8.998;2023-10-13T14:16:19;32.90;25.10
19403;DHT22;9837;48.888;8.998;2023-10-13T14:18:49;33.00;25.20
19403;DHT22;9837;48.888;8.998;2023-10-13T14:21:15;33.00;24.70
19403;DHT22;9837;48.888;8.998;2023-10-13T14:23:47;32.60;24.70
19403;DHT22;9837;48.888;8.998;2023-10-13T14:26:15;32.50;25.10
19403;DHT22;9837;48.888;8.998;2023-10-13T14:28:45;32.40;25.00
19403;DHT22;9837;48.888;8.998;2023-10-13T14:33:51;32.00;26.20
19403;DHT22;9837;48.888;8.998;2023-10-13T14:38:46;32.00;26.20
19403;DHT22;9837;48.888;8.998;2023-10-13T14:43:40;31.40;26.00
19403;DHT22;9837;48.888;8.998;2023-10-13T14:46:10;31.10;26.50
19403;DHT22;9837;48.888;8.998;2023-10-13T14:48:35;31.10;27.00
19403;DHT22;9837;48.888;8.998;2023-10-13T14:51:08;31.20;26.80
19403;DHT22;9837;48.888;8.998;2023-10-13T14:56:01;31.70;26.90
19403;DHT22;9837;48.888;8.998;2023-10-13T14:58:27;31.80;26.50
19403;DHT22;9837;48.888;8.998;2023-10-13T15:00:53;31.70;26.20
19403;DHT22;9837;48.888;8.998;2023-10-13T15:03:19;31.70;26.40
19403;DHT22;9837;48.888;8.998;2023-10-13T15:05:47;31.30;26.20
19403;DHT22;9837;48.888;8.998;2023-10-13T15:08:12;31.40;26.40
19403;DHT22;9837;48.888;8.998;2023-10-13T15:10:38;30.80;26.40
19403;DHT22;9837;48.888;8.998;2023-10-13T15:13:04;31.00;26.90
19403;DHT22;9837;48.888;8.998;2023-10-13T15:15:31;31.10;26.50
19403;DHT22;9837;48.888;8.998;2023-10-13T15:20:23;30.80;26.70
19403;DHT22;9837;48.888;8.998;2023-10-13T15:22:49;31.00;26.90
19403;DHT22;9837;48.888;8.998;2023-10-13T15:27:57;31.20;26.60
19403;DHT22;9837;48.888;8.998;2023-10-13T15:33:08;31.00;26.60
19403;DHT22;9837;48.888;8.998;2023-10-13T15:37:59;31.10;27.10
19403;DHT22;9837;48.888;8.998;2023-10-13T15:40:28;31.20;26.80
19403;DHT22;9837;48.888;8.998;2023-10-13T15:42:53;31.00;26.70
19403;DHT22;9837;48.888;8.998;2023-10-13T15:45:25;30.80;26.80
19403;DHT22;9837;48.888;8.998;2023-10-13T15:47:57;30.70;27.00
19403;DHT22;9837;48.888;8.998;2023-10-13T15:50:23;30.60;27.20
19403;DHT22;9837;48.888;8.998;2023-10-13T15:52:49;30.70;27.30
19403;DHT22;9837;48.888;8.998;2023-10-13T15:55:16;30.70;27.00
19403;DHT22;9837;48.888;8.998;2023-10-13T15:57:43;30.70;27.10
19403;DHT22;9837;48.888;8.998;2023-10-13T16:00:10;30.50;26.90
19403;DHT22;9837;48.888;8.998;2023-10-13T16:02:55;30.50;27.00
19403;DHT22;9837;48.888;8.998;2023-10-13T16:05:22;30.30;27.50
19403;DHT22;9837;48.888;8.998;2023-10-13T16:07:50;30.30;27.40
19403;DHT22;9837;48.888;8.998;2023-10-13T16:10:16;30.00;26.50
19403;DHT22;9837;48.888;8.998;2023-10-13T16:12:42;29.90;27.30
19403;DHT22;9837;48.888;8.998;2023-10-13T16:15:10;29.90;27.10
19403;DHT22;9837;48.888;8.998;2023-10-13T16:17:39;29.90;27.20
19403;DHT22;9837;48.888;8.998;2023-10-13T16:20:07;29.80;27.00
19403;DHT22;9837;48.888;8.998;2023-10-13T16:22:44;29.80;26.90
19403;DHT22;9837;48.888;8.998;2023-10-13T16:25:11;29.90;26.50
19403;DHT22;9837;48.888;8.998;2023-10-13T16:27:38;29.90;26.80
19403;DHT22;9837;48.888;8.998;2023-10-13T16:30:07;29.80;26.90
19403;DHT22;9837;48.888;8.998;2023-10-13T16:32:35;29.80;26.70
19403;DHT22;9837;48.888;8.998;2023-10-13T16:35:04;29.70;26.90
19403;DHT22;9837;48.888;8.998;2023-10-13T16:37:30;29.30;27.00
19403;DHT22;9837;48.888;8.998;2023-10-13T16:39:56;29.10;27.30
19403;DHT22;9837;48.888;8.998;2023-10-13T16:42:33;28.90;27.40
19403;DHT22;9837;48.888;8.998;2023-10-13T16:44:59;29.10;27.20
19403;DHT22;9837;48.888;8.998;2023-10-13T16:47:43;28.80;27.40
19403;DHT22;9837;48.888;8.998;2023-10-13T16:50:10;28.80;27.20
19403;DHT22;9837;48.888;8.998;2023-10-13T16:52:35;28.60;27.40
19403;DHT22;9837;48.888;8.998;2023-10-13T16:57:28;28.30;27.50
19403;DHT22;9837;48.888;8.998;2023-10-13T16:59:54;28.40;27.40
19403;DHT22;9837;48.888;8.998;2023-10-13T17:02:19;28.40;27.60
19403;DHT22;9837;48.888;8.998;2023-10-13T17:04:46;28.40;27.40
19403;DHT22;9837;48.888;8.998;2023-10-13T17:14:35;28.70;27.50
19403;DHT22;9837;48.888;8.998;2023-10-13T17:19:28;28.50;27.40
19403;DHT22;9837;48.888;8.998;2023-10-13T17:21:54;28.30;28.10
19403;DHT22;9837;48.888;8.998;2023-10-13T17:26:47;28.40;27.70
19403;DHT22;9837;48.888;8.998;2023-10-13T17:29:15;28.20;28.10
19403;DHT22;9837;48.888;8.998;2023-10-13T17:34:07;28.10;28.40
19403;DHT22;9837;48.888;8.998;2023-10-13T17:38:58;27.80;28.40
19403;DHT22;9837;48.888;8.998;2023-10-13T17:41:25;27.60;28.90
19403;DHT22;9837;48.888;8.998;2023-10-13T17:46:21;27.10;29.70
19403;DHT22;9837;48.888;8.998;2023-10-13T17:48:48;26.90;29.80
19403;DHT22;9837;48.888;8.998;2023-10-13T17:51:13;26.50;30.40
19403;DHT22;9837;48.888;8.998;2023-10-13T17:53:40;26.50;30.30
19403;DHT22;9837;48.888;8.998;2023-10-13T17:56:06;26.20;31.00
19403;DHT22;9837;48.888;8.998;2023-10-13T17:58:36;26.40;31.00
19403;DHT22;9837;48.888;8.998;2023-10-13T18:01:06;26.50;31.00
19403;DHT22;9837;48.888;8.998;2023-10-13T18:03:34;26.10;31.60
19403;DHT22;9837;48.888;8.998;2023-10-13T18:06:01;25.90;31.90
19403;DHT22;9837;48.888;8.998;2023-10-13T18:08:27;26.20;31.80
19403;DHT22;9837;48.888;8.998;2023-10-13T18:10:57;26.40;32.10
19403;DHT22;9837;48.888;8.998;2023-10-13T18:13:24;26.70;31.50
19403;DHT22;9837;48.888;8.998;2023-10-13T18:18:16;27.20;31.30
19403;DHT22;9837;48.888;8.998;2023-10-13T18:20:42;27.10;31.60
19403;DHT22;9837;48.888;8.998;2023-10-13T18:23:08;27.00;31.90
19403;DHT22;9837;48.888;8.998;2023-10-13T18:25:37;27.10;32.60
19403;DHT22;9837;48.888;8.998;2023-10-13T18:28:08;26.90;33.00